Urb Venturini, Puerto Rico
Current Conditions -  °F | °C
As of 8:50 PM on Saturday 25 Oct 2014 (Local Time) from TJBQ Reporting Station
Clear Clear  
Wind Chill: 81°   Ceiling: Unl
Heat Index: 86°   Visibility: 10mi
Dew Point: 75°   Wind: 0mph
Humidity: 84%   Direction: NA
Pressure: 29.91"   Gusts: NA
Location:  18.3413°N, 66.991°W
Report Text: TJBQ 260050Z 00000KT 10SM SKC 27/24 A2991 RMK TOWER CLOSED 0100-1100Z
Loading
Personal Weather Stations






























Interactive Weather Map
Tropical Storm Tracking
New forecast layout! Learn more

10-Day Weather Forecast

Advertisements
Track Severe Weather on mobile